Time;durP1;ratioP1;P1;durP2;ratioP2;P2;SDS_P1;SDS_P2;PMS_P1;PMS_P2;Temp;Humidity;BMP_temperature;BMP_pressure;BME280_temperature;BME280_humidity;BME280_pressure;Samples;Min_cycle;Max_cycle;Signal;HPM_P1;HPM_P2
2022/05/28 00:00:03;;;;;;;9.60;2.10;;;11.40;99.90;;;;;;4950933;28;20465;-70
2022/05/28 00:02:30;;;;;;;11.05;2.25;;;11.40;99.90;;;;;;4968201;28;20043;-70
2022/05/28 00:04:55;;;;;;;15.95;2.28;;;11.30;99.90;;;;;;4971123;28;20046;-69
2022/05/28 00:07:21;;;;;;;13.38;2.63;;;11.30;99.90;;;;;;4958319;28;20122;-69
2022/05/28 00:09:47;;;;;;;14.65;3.13;;;11.20;99.90;;;;;;4964891;28;20072;-71
2022/05/28 00:12:12;;;;;;;17.17;2.78;;;11.20;99.90;;;;;;4966973;28;20470;-70
2022/05/28 00:14:39;;;;;;;14.50;2.15;;;11.10;99.90;;;;;;4969630;28;20485;-70
2022/05/28 00:17:06;;;;;;;16.55;3.53;;;11.10;99.90;;;;;;4966377;28;20485;-70
2022/05/28 00:19:32;;;;;;;12.05;2.65;;;11.10;99.90;;;;;;4966634;28;20030;-71
2022/05/28 00:21:57;;;;;;;14.00;2.50;;;11.10;99.90;;;;;;4966474;28;20550;-69
2022/05/28 00:24:23;;;;;;;9.70;1.77;;;11.00;99.90;;;;;;4963039;28;20105;-71
2022/05/28 00:26:49;;;;;;;12.05;2.70;;;11.00;99.90;;;;;;4979645;28;20070;-70
2022/05/28 00:29:14;;;;;;;13.73;2.10;;;10.90;99.90;;;;;;4973768;28;20042;-70
2022/05/28 00:31:40;;;;;;;11.73;2.70;;;10.90;99.90;;;;;;4968786;28;20050;-69
2022/05/28 00:34:06;;;;;;;10.95;2.30;;;10.80;99.90;;;;;;4972959;28;20035;-70
2022/05/28 00:36:32;;;;;;;15.27;2.30;;;10.80;99.90;;;;;;4971913;28;20059;-68
2022/05/28 00:38:58;;;;;;;10.80;2.30;;;10.80;99.90;;;;;;4970144;28;20118;-68
2022/05/28 00:41:23;;;;;;;19.98;2.58;;;10.80;99.90;;;;;;4968338;28;20165;-70
2022/05/28 00:43:49;;;;;;;13.18;2.95;;;10.70;99.90;;;;;;4967897;28;20528;-69
2022/05/28 00:46:26;;;;;;;13.15;2.17;;;10.70;99.90;;;;;;4971671;28;20049;-72
2022/05/28 00:48:55;;;;;;;13.77;2.55;;;10.70;99.90;;;;;;4972323;28;20592;-70
2022/05/28 00:51:32;;;;;;;13.40;2.35;;;10.60;99.90;;;;;;4972609;28;20128;-71
2022/05/28 00:54:00;;;;;;;13.95;2.13;;;10.70;99.90;;;;;;4972850;28;20047;-70
2022/05/28 00:56:28;;;;;;;14.52;2.25;;;10.60;99.90;;;;;;4968014;28;20137;-70
2022/05/28 00:58:54;;;;;;;17.25;2.30;;;10.50;99.90;;;;;;4971465;28;20047;-69
2022/05/28 01:01:22;;;;;;;10.98;2.05;;;10.50;99.90;;;;;;4967638;28;20064;-70
2022/05/28 01:04:07;;;;;;;10.63;2.45;;;10.50;99.90;;;;;;4974375;28;20046;-70
2022/05/28 01:06:39;;;;;;;9.13;1.88;;;10.50;99.90;;;;;;4964293;28;20054;-69
2022/05/28 01:09:22;;;;;;;14.50;2.17;;;10.50;99.90;;;;;;4974065;28;20528;-71
2022/05/28 01:12:04;;;;;;;8.77;2.00;;;10.50;99.90;;;;;;4969116;28;20046;-71
2022/05/28 01:14:53;;;;;;;13.27;2.30;;;10.50;99.90;;;;;;4967832;28;20043;-69
2022/05/28 01:17:26;;;;;;;9.27;2.13;;;10.50;99.90;;;;;;4970842;28;20047;-69
2022/05/28 01:20:08;;;;;;;12.93;2.30;;;10.50;99.90;;;;;;4972484;28;20433;-70
2022/05/28 01:22:54;;;;;;;11.38;2.47;;;10.50;99.90;;;;;;4967755;28;20185;-71
2022/05/28 01:25:44;;;;;;;12.73;2.28;;;10.50;99.90;;;;;;4965052;28;20042;-69
2022/05/28 01:28:15;;;;;;;10.05;2.17;;;10.50;99.90;;;;;;4971113;28;20039;-70
2022/05/28 01:30:43;;;;;;;14.38;2.63;;;10.50;99.90;;;;;;4963535;28;20038;-70
2022/05/28 01:33:12;;;;;;;12.15;2.05;;;10.50;99.90;;;;;;4970798;28;20093;-69
2022/05/28 01:35:38;;;;;;;11.40;2.33;;;10.40;99.90;;;;;;4970106;28;20055;-69
2022/05/28 01:38:06;;;;;;;12.35;1.92;;;10.40;99.90;;;;;;4964552;28;20043;-70
2022/05/28 01:40:34;;;;;;;12.65;2.55;;;10.60;99.90;;;;;;4961849;28;20363;-70
2022/05/28 01:43:04;;;;;;;13.48;2.60;;;10.50;99.90;;;;;;4967879;28;20082;-70
2022/05/28 01:45:31;;;;;;;12.38;2.47;;;10.50;99.90;;;;;;4970683;28;20085;-70
2022/05/28 01:48:02;;;;;;;13.05;2.38;;;10.60;99.90;;;;;;4981857;28;20042;-70
2022/05/28 01:50:32;;;;;;;10.13;2.03;;;10.60;99.90;;;;;;4965635;28;20050;-70
2022/05/28 01:53:05;;;;;;;13.95;2.92;;;10.60;99.90;;;;;;4964335;28;20078;-71
2022/05/28 01:55:34;;;;;;;13.65;2.20;;;10.60;99.90;;;;;;4965214;28;20508;-69
2022/05/28 01:58:00;;;;;;;13.50;2.10;;;10.60;99.90;;;;;;4965276;28;20053;-69
2022/05/28 02:00:26;;;;;;;16.55;2.95;;;10.60;99.90;;;;;;4964492;28;20039;-71
2022/05/28 02:02:52;;;;;;;15.75;2.25;;;10.70;99.90;;;;;;4967314;28;20054;-69
2022/05/28 02:05:18;;;;;;;13.35;3.10;;;10.60;99.90;;;;;;4970861;28;20077;-71
2022/05/28 02:07:44;;;;;;;11.68;2.50;;;10.70;99.90;;;;;;4970284;28;20046;-70
2022/05/28 02:10:15;;;;;;;12.27;2.28;;;10.60;99.90;;;;;;4972199;28;20404;-70
2022/05/28 02:13:01;;;;;;;12.02;2.40;;;10.60;99.90;;;;;;4964854;28;20046;-70
2022/05/28 02:15:50;;;;;;;15.73;2.92;;;10.50;99.90;;;;;;4957443;28;20109;-69
2022/05/28 02:18:38;;;;;;;11.70;2.67;;;10.50;99.90;;;;;;4967149;28;20038;-71
2022/05/28 02:21:12;;;;;;;8.20;2.10;;;10.50;99.90;;;;;;4971845;28;20047;-70
2022/05/28 02:23:54;;;;;;;20.27;2.67;;;10.50;99.90;;;;;;4966432;28;20497;-70
2022/05/28 02:26:30;;;;;;;18.38;2.70;;;10.50;99.90;;;;;;4968270;28;20058;-69
2022/05/28 02:28:58;;;;;;;17.95;2.63;;;10.40;99.90;;;;;;4950826;28;20062;-70
2022/05/28 02:31:27;;;;;;;9.00;1.63;;;10.40;99.90;;;;;;4969296;28;20047;-71
2022/05/28 02:33:53;;;;;;;11.60;2.10;;;10.50;99.90;;;;;;4951544;28;20078;-70
2022/05/28 02:36:19;;;;;;;11.40;2.00;;;10.60;99.90;;;;;;4967308;28;20067;-69
2022/05/28 02:38:44;;;;;;;16.58;2.53;;;10.50;99.90;;;;;;4965959;28;20038;-70
2022/05/28 02:41:11;;;;;;;14.95;2.83;;;10.50;99.90;;;;;;4968068;28;20055;-69
2022/05/28 02:43:37;;;;;;;12.75;2.70;;;10.60;99.90;;;;;;4967454;28;20043;-71
2022/05/28 02:46:04;;;;;;;10.68;3.20;;;10.60;99.90;;;;;;4972468;28;20054;-72
2022/05/28 02:48:31;;;;;;;18.25;2.60;;;10.70;99.90;;;;;;4969869;28;20417;-69
2022/05/28 02:51:04;;;;;;;8.15;2.22;;;10.60;99.90;;;;;;4974735;28;20478;-69
2022/05/28 02:53:30;;;;;;;18.50;2.85;;;10.60;99.90;;;;;;4969326;28;20058;-69
2022/05/28 02:55:56;;;;;;;17.58;3.08;;;10.50;99.90;;;;;;4967621;28;20043;-71
2022/05/28 02:58:21;;;;;;;12.65;2.40;;;10.40;99.90;;;;;;4969752;28;20167;-71
2022/05/28 03:00:47;;;;;;;20.90;3.00;;;10.40;99.90;;;;;;4969407;28;20093;-70
2022/05/28 03:03:18;;;;;;;11.02;2.60;;;10.40;99.90;;;;;;4969481;28;20093;-69
2022/05/28 03:05:45;;;;;;;16.77;3.55;;;10.30;99.90;;;;;;4970885;28;20374;-69
2022/05/28 03:08:10;;;;;;;19.17;3.33;;;10.40;99.90;;;;;;4967133;28;20059;-70
2022/05/28 03:10:36;;;;;;;19.05;2.92;;;10.40;99.90;;;;;;4974101;28;20128;-69
2022/05/28 03:13:02;;;;;;;19.30;3.47;;;10.60;99.90;;;;;;4969199;28;20046;-71
2022/05/28 03:15:28;;;;;;;14.80;2.70;;;10.40;99.90;;;;;;4965205;28;20459;-69
2022/05/28 03:17:53;;;;;;;22.92;3.45;;;10.40;99.90;;;;;;4961636;28;20078;-72
2022/05/28 03:20:19;;;;;;;18.80;3.05;;;10.30;99.90;;;;;;4964018;28;20109;-70
2022/05/28 03:22:47;;;;;;;16.33;3.05;;;10.30;99.90;;;;;;4970417;28;20047;-70
2022/05/28 03:25:13;;;;;;;13.27;2.58;;;10.30;99.90;;;;;;4966827;28;20035;-69
2022/05/28 03:27:39;;;;;;;13.90;2.60;;;10.30;99.90;;;;;;4968682;28;20046;-69
2022/05/28 03:30:05;;;;;;;17.48;2.70;;;10.30;99.90;;;;;;4965962;28;20054;-69
2022/05/28 03:32:30;;;;;;;14.95;3.22;;;10.30;99.90;;;;;;4970709;28;20124;-70
2022/05/28 03:34:56;;;;;;;21.10;3.83;;;10.30;99.90;;;;;;4970697;28;20110;-70
2022/05/28 03:37:22;;;;;;;14.80;2.85;;;10.30;99.90;;;;;;4978204;28;20465;-69
2022/05/28 03:39:47;;;;;;;13.95;2.38;;;10.30;99.90;;;;;;4947517;28;20569;-71
2022/05/28 03:42:13;;;;;;;18.27;3.30;;;10.30;99.90;;;;;;4966200;28;20400;-70
2022/05/28 03:44:38;;;;;;;14.63;2.90;;;10.30;99.90;;;;;;4970839;28;20050;-69
2022/05/28 03:47:04;;;;;;;11.88;2.88;;;10.20;99.90;;;;;;4967398;28;20046;-69
2022/05/28 03:49:33;;;;;;;24.60;4.20;;;10.30;99.90;;;;;;4967916;28;20050;-69
2022/05/28 03:51:58;;;;;;;;;;;10.30;99.90;;;;;;4966935;28;20048;-70
2022/05/28 03:54:24;;;;;;;11.55;2.58;;;10.30;99.90;;;;;;4965118;28;19972;-70
2022/05/28 03:56:55;;;;;;;18.80;2.92;;;10.30;99.90;;;;;;4965804;28;20338;-69
2022/05/28 03:59:20;;;;;;;12.82;2.42;;;10.30;99.90;;;;;;4968248;28;20130;-71
2022/05/28 04:01:46;;;;;;;12.98;2.60;;;10.30;99.90;;;;;;4969029;28;20121;-71
2022/05/28 04:04:11;;;;;;;15.93;2.72;;;10.30;99.90;;;;;;4972883;28;20178;-70
2022/05/28 04:06:38;;;;;;;16.45;3.35;;;10.30;99.90;;;;;;4972406;28;20122;-70
2022/05/28 04:09:05;;;;;;;15.98;2.67;;;10.30;99.90;;;;;;4971676;28;20061;-72
2022/05/28 04:11:31;;;;;;;15.32;2.70;;;10.30;99.90;;;;;;4972232;28;20046;-69
2022/05/28 04:13:56;;;;;;;13.68;2.70;;;10.40;99.90;;;;;;4973079;28;20437;-69
2022/05/28 04:16:24;;;;;;;11.13;2.40;;;10.40;99.90;;;;;;4982036;28;20470;-69
2022/05/28 04:18:49;;;;;;;13.55;2.67;;;10.40;99.90;;;;;;4971020;28;20117;-69
2022/05/28 04:21:15;;;;;;;12.80;3.13;;;10.50;99.90;;;;;;4973365;28;20532;-69
2022/05/28 04:23:41;;;;;;;16.38;3.22;;;10.50;99.90;;;;;;4970912;28;20043;-71
2022/05/28 04:26:06;;;;;;;13.35;2.78;;;10.50;99.90;;;;;;4968012;28;20070;-70
2022/05/28 04:28:32;;;;;;;16.33;2.67;;;10.60;99.90;;;;;;4971622;28;20062;-70
2022/05/28 04:30:58;;;;;;;12.20;2.55;;;10.70;99.90;;;;;;4971844;28;20046;-68
2022/05/28 04:33:24;;;;;;;11.75;2.83;;;10.70;99.90;;;;;;4974270;28;20043;-70
2022/05/28 04:35:49;;;;;;;12.05;2.83;;;10.70;99.90;;;;;;4970231;28;20121;-69
2022/05/28 04:38:15;;;;;;;15.20;2.75;;;10.70;99.90;;;;;;4969810;28;20042;-72
2022/05/28 04:40:41;;;;;;;12.95;2.47;;;10.80;99.90;;;;;;4967433;28;20083;-70
2022/05/28 04:43:06;;;;;;;15.40;3.35;;;10.90;99.90;;;;;;4970010;28;20486;-69
2022/05/28 04:45:32;;;;;;;12.88;2.90;;;10.90;99.90;;;;;;4964388;28;20531;-70
2022/05/28 04:47:58;;;;;;;14.65;2.67;;;11.00;99.90;;;;;;4965765;28;20047;-69
2022/05/28 04:50:23;;;;;;;14.73;3.65;;;11.10;99.90;;;;;;4969237;28;20039;-69
2022/05/28 04:52:49;;;;;;;19.42;3.42;;;11.10;99.90;;;;;;4973382;28;20042;-70
2022/05/28 04:55:15;;;;;;;25.80;3.42;;;11.10;99.90;;;;;;4974072;28;20148;-70
2022/05/28 04:57:40;;;;;;;17.17;3.03;;;11.10;99.90;;;;;;4966713;28;20122;-70
2022/05/28 05:00:14;;;;;;;18.90;3.42;;;11.00;99.90;;;;;;4971125;28;20066;-68
2022/05/28 05:02:39;;;;;;;19.65;3.53;;;11.00;99.90;;;;;;4968671;28;20457;-73
2022/05/28 05:05:05;;;;;;;13.73;2.95;;;11.00;99.90;;;;;;4988405;28;20042;-70
2022/05/28 05:07:31;;;;;;;16.80;2.80;;;11.00;99.90;;;;;;4983677;28;20497;-71
2022/05/28 05:09:57;;;;;;;21.55;3.83;;;11.10;99.90;;;;;;4969285;28;20052;-71
2022/05/28 05:12:22;;;;;;;16.08;2.72;;;11.20;99.90;;;;;;4972262;28;20039;-71
2022/05/28 05:14:48;;;;;;;19.25;3.53;;;11.30;99.90;;;;;;4969575;28;20035;-70
2022/05/28 05:17:14;;;;;;;15.93;3.40;;;11.40;99.90;;;;;;4974674;28;20047;-71
2022/05/28 05:19:39;;;;;;;15.13;3.40;;;11.50;99.90;;;;;;4968627;28;20046;-71
2022/05/28 05:22:05;;;;;;;16.10;3.00;;;11.60;99.90;;;;;;4967739;28;20051;-70
2022/05/28 05:24:33;;;;;;;23.58;2.78;;;11.70;99.90;;;;;;4969179;28;20135;-70
2022/05/28 05:26:59;;;;;;;;;;;11.80;99.90;;;;;;4974099;28;20043;-69
2022/05/28 05:29:24;;;;;;;17.33;2.75;;;11.90;99.90;;;;;;4969452;28;19926;-70
2022/05/28 05:31:50;;;;;;;19.27;4.15;;;12.00;99.90;;;;;;4970933;28;20510;-70
2022/05/28 05:34:16;;;;;;;18.42;3.25;;;12.10;99.90;;;;;;4970879;28;20043;-71
2022/05/28 05:36:41;;;;;;;11.32;3.05;;;12.20;99.90;;;;;;4983859;28;20042;-71
2022/05/28 05:39:07;;;;;;;15.23;3.50;;;12.20;99.90;;;;;;4966281;28;20047;-71
2022/05/28 05:41:37;;;;;;;19.13;2.97;;;12.10;99.90;;;;;;4967305;28;20039;-70
2022/05/28 05:44:03;;;;;;;11.00;2.95;;;12.10;99.90;;;;;;4963565;28;20547;-72
2022/05/28 05:46:29;;;;;;;20.48;3.47;;;12.10;99.90;;;;;;4963432;28;20141;-69
2022/05/28 05:48:55;;;;;;;18.02;3.70;;;12.10;99.90;;;;;;4970595;28;20035;-69
2022/05/28 05:51:20;;;;;;;12.48;2.80;;;12.20;99.90;;;;;;4966855;28;20197;-70
2022/05/28 05:53:46;;;;;;;13.70;2.75;;;12.30;99.90;;;;;;4967611;28;20050;-71
2022/05/28 05:56:11;;;;;;;20.35;3.55;;;12.30;99.90;;;;;;4965678;28;20038;-71
2022/05/28 05:58:38;;;;;;;18.02;3.75;;;12.20;99.90;;;;;;4968118;28;20084;-69
2022/05/28 06:01:05;;;;;;;19.67;3.53;;;12.20;99.90;;;;;;4967472;28;20050;-70
2022/05/28 06:03:31;;;;;;;12.80;3.13;;;12.20;99.90;;;;;;4962406;28;20482;-70
2022/05/28 06:05:58;;;;;;;22.77;4.25;;;12.20;99.90;;;;;;4967759;28;20136;-70
2022/05/28 06:08:24;;;;;;;23.95;3.65;;;12.10;99.90;;;;;;4961789;28;20086;-70
2022/05/28 06:10:50;;;;;;;24.95;4.38;;;12.00;99.90;;;;;;4963770;28;20046;-70
2022/05/28 06:13:15;;;;;;;23.05;3.85;;;12.10;99.90;;;;;;4962856;28;20452;-69
2022/05/28 06:15:41;;;;;;;15.13;3.05;;;12.20;99.90;;;;;;4966879;28;20038;-69
2022/05/28 06:18:07;;;;;;;16.08;3.25;;;12.30;99.90;;;;;;4967034;28;20051;-70
2022/05/28 06:20:32;;;;;;;22.33;3.45;;;12.40;99.90;;;;;;4964481;28;20043;-69
2022/05/28 06:22:58;;;;;;;17.95;3.13;;;12.40;99.90;;;;;;4987313;28;20038;-69
2022/05/28 06:25:24;;;;;;;25.52;2.83;;;12.10;99.90;;;;;;4964380;28;20511;-70
2022/05/28 06:27:49;;;;;;;14.30;2.92;;;11.80;99.90;;;;;;4963983;28;20043;-71
2022/05/28 06:30:15;;;;;;;14.13;2.40;;;11.60;99.90;;;;;;4964556;28;20047;-68
2022/05/28 06:32:41;;;;;;;15.77;2.70;;;11.50;99.90;;;;;;4986635;28;20098;-70
2022/05/28 06:35:07;;;;;;;16.67;2.80;;;11.70;99.90;;;;;;4971555;28;20039;-70
2022/05/28 06:37:33;;;;;;;13.95;2.30;;;11.80;99.90;;;;;;4962655;28;20043;-69
2022/05/28 06:39:58;;;;;;;14.20;2.78;;;12.00;99.90;;;;;;4968616;28;20049;-71
2022/05/28 06:42:24;;;;;;;14.05;2.63;;;12.20;99.90;;;;;;4968057;28;20049;-70
2022/05/28 06:44:50;;;;;;;11.05;2.20;;;12.30;99.90;;;;;;4969654;28;20046;-69
2022/05/28 06:47:16;;;;;;;20.02;2.97;;;12.50;99.90;;;;;;4984809;28;20046;-69
2022/05/28 06:49:41;;;;;;;11.30;2.47;;;12.60;99.90;;;;;;4958290;28;20391;-70
2022/05/28 06:52:07;;;;;;;14.95;2.90;;;12.70;99.90;;;;;;4954404;28;20042;-69
2022/05/28 06:54:33;;;;;;;17.80;3.33;;;12.80;99.90;;;;;;4981297;28;20039;-69
2022/05/28 06:56:59;;;;;;;23.50;3.40;;;12.80;99.90;;;;;;4963076;28;20425;-70
2022/05/28 06:59:24;;;;;;;15.15;3.53;;;12.90;99.90;;;;;;4948255;28;20046;-71
2022/05/28 07:01:50;;;;;;;18.30;3.70;;;12.80;99.90;;;;;;4964145;28;20106;-70
2022/05/28 07:04:16;;;;;;;14.68;2.88;;;12.90;99.90;;;;;;4961888;28;20200;-71
2022/05/28 07:06:42;;;;;;;14.32;2.83;;;12.80;99.90;;;;;;4966892;28;20045;-70
2022/05/28 07:09:07;;;;;;;20.35;3.38;;;12.80;99.90;;;;;;4961109;28;20473;-70
2022/05/28 07:11:33;;;;;;;16.40;2.97;;;12.70;99.90;;;;;;4968205;28;20046;-69
2022/05/28 07:13:59;;;;;;;20.63;3.33;;;12.70;99.90;;;;;;4971708;28;20069;-69
2022/05/28 07:16:25;;;;;;;17.60;4.18;;;12.80;99.90;;;;;;4970729;28;20037;-72
2022/05/28 07:18:50;;;;;;;21.90;4.47;;;12.80;99.90;;;;;;4970456;28;20049;-70
2022/05/28 07:21:16;;;;;;;18.55;3.70;;;12.90;99.90;;;;;;4971484;28;20347;-70
2022/05/28 07:23:41;;;;;;;27.02;3.90;;;13.00;99.90;;;;;;4964796;28;20560;-70
2022/05/28 07:26:12;;;;;;;18.10;3.10;;;12.90;99.90;;;;;;4966805;28;20042;-70
2022/05/28 07:28:39;;;;;;;19.45;3.05;;;12.90;99.90;;;;;;4974813;28;20051;-70
2022/05/28 07:31:14;;;;;;;21.80;3.72;;;12.80;99.90;;;;;;4970482;28;20054;-70
2022/05/28 07:33:42;;;;;;;17.33;3.25;;;12.70;99.90;;;;;;4974542;28;20424;-70
2022/05/28 07:36:10;;;;;;;16.08;3.17;;;12.70;99.90;;;;;;4971186;28;20071;-69
2022/05/28 07:38:37;;;;;;;16.15;3.15;;;12.90;99.90;;;;;;4974860;28;20082;-69
2022/05/28 07:41:04;;;;;;;23.05;3.63;;;13.30;99.90;;;;;;4981234;28;20058;-71
2022/05/28 07:43:30;;;;;;;9.95;2.67;;;13.50;99.90;;;;;;4974188;28;20039;-70
2022/05/28 07:45:56;;;;;;;22.98;3.50;;;13.70;99.90;;;;;;4974691;28;20527;-71
2022/05/28 07:48:22;;;;;;;24.85;4.07;;;13.60;99.90;;;;;;4977383;28;20050;-70
2022/05/28 07:50:48;;;;;;;22.58;3.13;;;13.30;99.90;;;;;;4977388;28;20039;-68
2022/05/28 07:53:13;;;;;;;21.13;3.95;;;13.00;99.90;;;;;;4976139;28;20477;-69
2022/05/28 07:55:39;;;;;;;16.27;3.25;;;12.80;99.90;;;;;;4980994;28;20122;-70
2022/05/28 07:58:16;;;;;;;19.30;3.20;;;12.80;99.90;;;;;;4974908;28;20039;-69
2022/05/28 08:00:45;;;;;;;20.15;3.10;;;13.10;99.90;;;;;;4974541;28;20074;-69
2022/05/28 08:03:13;;;;;;;14.20;3.70;;;13.30;99.90;;;;;;4978874;28;20043;-71
2022/05/28 08:05:42;;;;;;;19.60;3.25;;;13.40;99.90;;;;;;4976459;28;20042;-71
2022/05/28 08:08:08;;;;;;;18.33;3.80;;;13.30;99.90;;;;;;4973341;28;20094;-69
2022/05/28 08:10:34;;;;;;;15.98;3.42;;;13.20;99.90;;;;;;4969946;28;20126;-70
2022/05/28 08:13:10;;;;;;;15.48;2.75;;;13.20;99.90;;;;;;4974566;28;20189;-71
2022/05/28 08:15:38;;;;;;;27.63;3.92;;;13.30;99.90;;;;;;4976839;28;20620;-69
2022/05/28 08:18:04;;;;;;;;;;;13.30;99.90;;;;;;4974237;28;20169;-69
2022/05/28 08:23:14;;;;;;;13.85;3.58;;;13.40;99.90;;;;;;4968256;28;20441;-69
2022/05/28 08:25:41;;;;;;;25.55;3.40;;;13.50;99.90;;;;;;4969476;28;20039;-71
2022/05/28 08:28:12;;;;;;;20.90;3.60;;;13.60;99.90;;;;;;4975832;28;20054;-69
2022/05/28 08:30:38;;;;;;;13.98;2.90;;;13.80;99.90;;;;;;4972452;28;20047;-70
2022/05/28 08:33:05;;;;;;;16.13;2.95;;;13.90;99.90;;;;;;4973629;28;20038;-69
2022/05/28 08:35:31;;;;;;;11.90;2.42;;;13.90;99.90;;;;;;4972361;28;20105;-69
2022/05/28 08:37:56;;;;;;;16.02;3.58;;;13.70;99.90;;;;;;4969480;28;20042;-68
2022/05/28 08:40:25;;;;;;;18.10;2.70;;;13.80;99.90;;;;;;4972270;28;20401;-71
2022/05/28 08:42:51;;;;;;;14.45;2.67;;;13.80;99.90;;;;;;4969918;28;20045;-69
2022/05/28 08:45:17;;;;;;;12.52;2.95;;;14.00;99.90;;;;;;4972404;28;20053;-70
2022/05/28 08:47:47;;;;;;;13.80;3.00;;;14.00;99.50;;;;;;4974307;28;20085;-70
2022/05/28 08:50:13;;;;;;;17.80;2.80;;;14.20;99.80;;;;;;4977076;28;20073;-69
2022/05/28 08:52:58;;;;;;;21.17;3.60;;;14.30;99.50;;;;;;4983438;28;20035;-70
2022/05/28 08:55:26;;;;;;;22.73;3.80;;;14.20;99.90;;;;;;4971370;28;20043;-71
2022/05/28 08:58:05;;;;;;;20.55;3.28;;;14.00;99.90;;;;;;4983143;28;20043;-69
2022/05/28 09:00:54;;;;;;;15.27;2.50;;;13.70;99.90;;;;;;4963467;28;20062;-71
2022/05/28 09:03:27;;;;;;;21.42;3.97;;;13.60;99.90;;;;;;4972502;28;20081;-71
2022/05/28 09:06:10;;;;;;;18.55;3.42;;;13.50;99.90;;;;;;4972657;28;20046;-69
2022/05/28 09:08:40;;;;;;;16.52;3.35;;;13.50;99.90;;;;;;4974205;28;20126;-71
2022/05/28 09:11:11;;;;;;;21.10;3.58;;;13.50;99.90;;;;;;4968131;28;20039;-71
2022/05/28 09:13:49;;;;;;;20.08;3.38;;;13.40;99.90;;;;;;4971796;28;20057;-68
2022/05/28 09:16:32;;;;;;;20.73;3.38;;;13.30;99.90;;;;;;4970201;28;20101;-69
2022/05/28 09:19:04;;;;;;;18.52;3.60;;;13.20;99.90;;;;;;4972088;28;20042;-69
2022/05/28 09:21:30;;;;;;;14.70;3.30;;;13.20;99.90;;;;;;4970770;28;20042;-69
2022/05/28 09:24:00;;;;;;;14.10;2.65;;;13.40;99.90;;;;;;4961274;28;20047;-71
2022/05/28 09:26:29;;;;;;;15.30;2.88;;;13.70;99.90;;;;;;4965171;28;20055;-69
2022/05/28 09:29:23;;;;;;;18.70;3.00;;;13.90;99.90;;;;;;4970914;28;20043;-70
2022/05/28 09:31:48;;;;;;;21.58;3.20;;;13.80;99.90;;;;;;4966132;28;20043;-71
2022/05/28 09:34:36;;;;;;;20.13;4.10;;;13.60;99.90;;;;;;4963729;28;20375;-70
2022/05/28 09:37:15;;;;;;;16.52;3.40;;;13.60;99.90;;;;;;4966609;28;20053;-70
2022/05/28 09:40:13;;;;;;;20.38;3.67;;;13.60;99.90;;;;;;4968602;28;20493;-70
2022/05/28 09:43:02;;;;;;;18.80;3.03;;;13.90;99.90;;;;;;4943244;28;20061;-69
2022/05/28 09:45:34;;;;;;;;;;;14.20;99.90;;;;;;4968923;28;20401;-71
2022/05/28 09:48:00;;;;;;;18.45;3.35;;;14.10;99.90;;;;;;4972817;28;19993;-70
2022/05/28 09:50:47;;;;;;;14.63;3.25;;;13.90;99.90;;;;;;4969282;28;20560;-69
2022/05/28 09:56:22;;;;;;;14.18;2.70;;;14.10;99.90;;;;;;4966837;28;20981;-68
2022/05/28 09:58:48;;;;;;;15.88;2.90;;;14.30;99.70;;;;;;4971736;28;20043;-70
2022/05/28 10:01:23;;;;;;;10.13;2.47;;;14.50;98.80;;;;;;4968076;28;20482;-71
2022/05/28 10:06:49;;;;;;;15.95;2.42;;;14.50;99.40;;;;;;4955213;28;20047;-69
2022/05/28 10:09:21;;;;;;;13.50;3.00;;;14.50;99.30;;;;;;4977166;28;20477;-69
2022/05/28 10:12:23;;;;;;;9.02;2.25;;;14.30;97.80;;;;;;4971200;28;20484;-70
2022/05/28 10:15:11;;;;;;;16.08;2.45;;;14.20;96.60;;;;;;4966906;28;20050;-72
2022/05/28 10:17:41;;;;;;;13.65;2.65;;;14.40;96.50;;;;;;4972419;28;20283;-70
2022/05/28 10:20:19;;;;;;;17.45;2.42;;;14.60;97.30;;;;;;4972622;28;20140;-70
2022/05/28 10:22:48;;;;;;;12.05;2.03;;;14.50;97.80;;;;;;4970528;28;20068;-69
2022/05/28 10:25:37;;;;;;;11.02;2.22;;;14.60;96.90;;;;;;4970887;28;20054;-68
2022/05/28 10:28:04;;;;;;;10.05;1.85;;;14.60;96.60;;;;;;4962923;28;20121;-70
2022/05/28 10:30:34;;;;;;;9.20;1.83;;;14.60;94.60;;;;;;4968233;28;20534;-72
2022/05/28 10:33:12;;;;;;;13.93;2.53;;;14.60;93.60;;;;;;4967268;28;20429;-70
2022/05/28 10:35:39;;;;;;;5.03;1.67;;;14.60;93.60;;;;;;4971307;28;20046;-71
2022/05/28 10:38:14;;;;;;;19.75;1.92;;;14.60;92.20;;;;;;4963449;28;20129;-71
2022/05/28 10:40:57;;;;;;;10.95;2.85;;;14.80;93.60;;;;;;4970468;28;20074;-70
2022/05/28 10:43:30;;;;;;;20.75;2.85;;;15.10;93.40;;;;;;4968590;28;20035;-70
2022/05/28 10:46:29;;;;;;;11.77;2.38;;;15.00;93.60;;;;;;4968588;28;20557;-69
2022/05/28 10:49:04;;;;;;;10.90;2.50;;;15.00;94.80;;;;;;4966864;28;20101;-69
2022/05/28 10:52:12;;;;;;;17.77;3.25;;;15.30;94.30;;;;;;4966051;28;20081;-70
2022/05/28 10:54:49;;;;;;;8.43;2.47;;;15.20;93.70;;;;;;4969111;28;20062;-72
2022/05/28 10:57:20;;;;;;;11.55;2.35;;;15.10;94.20;;;;;;4964787;28;20034;-71
2022/05/28 10:59:55;;;;;;;13.77;3.15;;;15.00;92.80;;;;;;4967974;28;20043;-70
2022/05/28 11:02:45;;;;;;;10.40;2.13;;;14.90;92.90;;;;;;4968252;28;20054;-70
2022/05/28 11:05:48;;;;;;;10.55;3.03;;;14.80;93.10;;;;;;4968097;28;20499;-71
2022/05/28 11:08:20;;;;;;;8.63;1.92;;;14.90;94.30;;;;;;4968245;28;20182;-71
2022/05/28 11:11:27;;;;;;;13.27;3.22;;;15.00;94.10;;;;;;4966382;28;20055;-69
2022/05/28 11:14:28;;;;;;;15.00;3.67;;;14.90;94.80;;;;;;4962534;28;20452;-69
2022/05/28 11:16:56;;;;;;;15.95;2.90;;;14.80;95.10;;;;;;4964978;28;20039;-71
2022/05/28 11:19:41;;;;;;;9.93;2.30;;;15.10;94.40;;;;;;4970919;28;20050;-71
2022/05/28 11:22:31;;;;;;;8.43;1.92;;;15.50;94.00;;;;;;4965141;28;20051;-69
2022/05/28 11:25:09;;;;;;;8.23;2.05;;;15.80;91.60;;;;;;4953323;28;20043;-70
2022/05/28 11:28:23;;;;;;;22.10;2.30;;;15.90;91.30;;;;;;4970190;28;20490;-74
2022/05/28 11:30:54;;;;;;;11.13;3.05;;;15.80;91.90;;;;;;4968189;28;20042;-69
2022/05/28 11:33:37;;;;;;;15.73;3.03;;;15.70;92.40;;;;;;4968533;28;20109;-70
2022/05/28 11:36:24;;;;;;;13.32;2.60;;;15.60;93.10;;;;;;4955284;28;20043;-70
2022/05/28 11:39:02;;;;;;;11.43;2.90;;;15.30;93.50;;;;;;4968449;28;20055;-70
2022/05/28 11:41:32;;;;;;;14.48;2.38;;;15.00;94.00;;;;;;4969384;28;20043;-69
2022/05/28 11:44:25;;;;;;;17.83;3.20;;;14.90;94.20;;;;;;4970649;28;20531;-70
2022/05/28 11:47:22;;;;;;;8.93;2.55;;;14.80;95.30;;;;;;4967621;28;20042;-71
2022/05/28 11:53:10;;;;;;;12.80;2.33;;;14.60;96.90;;;;;;4969939;28;20798;-71
2022/05/28 11:55:40;;;;;;;13.55;2.63;;;14.80;98.10;;;;;;4969245;28;20049;-72
2022/05/28 11:58:24;;;;;;;18.73;3.85;;;15.10;98.50;;;;;;4970580;28;20576;-70
2022/05/28 12:00:56;;;;;;;16.92;2.90;;;15.30;97.10;;;;;;4963665;28;20545;-71
2022/05/28 12:03:25;;;;;;;18.88;2.83;;;15.10;96.70;;;;;;4961318;28;20097;-70
2022/05/28 12:05:53;;;;;;;16.98;3.45;;;15.20;96.00;;;;;;4965521;28;20047;-70
2022/05/28 12:08:42;;;;;;;18.65;2.60;;;15.30;96.10;;;;;;4980326;28;20496;-70
2022/05/28 12:11:38;;;;;;;14.38;2.78;;;15.20;95.20;;;;;;4965689;28;20118;-70
2022/05/28 12:14:27;;;;;;;13.00;2.92;;;15.20;95.30;;;;;;4963855;28;20058;-70
2022/05/28 12:17:10;;;;;;;12.63;2.22;;;15.20;94.50;;;;;;4963961;28;20047;-71
2022/05/28 12:19:59;;;;;;;12.52;2.40;;;15.40;93.80;;;;;;4964653;28;20421;-71
2022/05/28 12:22:51;;;;;;;19.90;3.10;;;15.40;93.80;;;;;;4966792;28;20049;-70
2022/05/28 12:25:17;;;;;;;14.40;2.90;;;15.20;95.00;;;;;;4952825;28;20083;-68
2022/05/28 12:27:49;;;;;;;14.23;3.20;;;15.40;95.30;;;;;;4973416;28;20085;-70
2022/05/28 12:30:37;;;;;;;18.80;3.00;;;15.50;95.80;;;;;;4973871;28;20038;-70
2022/05/28 12:33:03;;;;;;;15.57;2.65;;;15.40;95.50;;;;;;4969719;28;20050;-69
2022/05/28 12:35:50;;;;;;;13.07;2.97;;;15.10;95.90;;;;;;4962449;28;20043;-68
2022/05/28 12:38:30;;;;;;;10.52;2.20;;;14.90;96.30;;;;;;4968113;28;20043;-69
2022/05/28 12:41:00;;;;;;;9.43;2.50;;;14.80;95.50;;;;;;4971951;28;20412;-70
2022/05/28 12:43:28;;;;;;;11.23;2.53;;;14.90;96.10;;;;;;4972258;28;20050;-70
2022/05/28 12:45:56;;;;;;;16.20;3.20;;;14.90;95.70;;;;;;4969720;28;20042;-69
2022/05/28 12:48:25;;;;;;;12.85;2.25;;;15.00;95.70;;;;;;4988694;28;20046;-69
2022/05/28 12:51:07;;;;;;;19.77;2.65;;;15.10;94.50;;;;;;4969787;28;20039;-70
2022/05/28 12:53:54;;;;;;;14.57;2.83;;;15.10;95.00;;;;;;4971852;28;20413;-70
2022/05/28 12:56:44;;;;;;;14.63;3.20;;;14.90;95.60;;;;;;4965349;28;20117;-69
2022/05/28 12:59:14;;;;;;;;;;;14.70;96.00;;;;;;4968979;28;20047;-70
2022/05/28 13:02:06;;;;;;;15.23;2.30;;;14.60;96.60;;;;;;4966347;28;19980;-71
2022/05/28 13:04:41;;;;;;;11.90;2.75;;;14.60;96.20;;;;;;4966240;28;20038;-69
2022/05/28 13:07:22;;;;;;;15.38;3.20;;;14.70;96.60;;;;;;4968697;28;20039;-71
2022/05/28 13:09:54;;;;;;;19.67;5.05;;;15.00;95.40;;;;;;4974127;28;20101;-71